sensor_id;sensor_type;location;lat;lon;timestamp;temperature;humidity
15450;DHT22;7826;49.784;9.934;2023-05-10T00:00:03;11.90;1.00
15450;DHT22;7826;49.784;9.934;2023-05-10T00:02:30;11.90;1.00
15450;DHT22;7826;49.784;9.934;2023-05-10T00:04:57;11.90;1.00
15450;DHT22;7826;49.784;9.934;2023-05-10T00:07:23;11.80;1.00
15450;DHT22;7826;49.784;9.934;2023-05-10T00:09:49;11.80;1.00
15450;DHT22;7826;49.784;9.934;2023-05-10T00:12:15;11.80;1.00
15450;DHT22;7826;49.784;9.934;2023-05-10T00:14:42;11.70;1.00
15450;DHT22;7826;49.784;9.934;2023-05-10T00:17:08;11.60;1.00
15450;DHT22;7826;49.784;9.934;2023-05-10T00:19:34;11.60;1.00
15450;DHT22;7826;49.784;9.934;2023-05-10T00:22:01;11.60;1.00
15450;DHT22;7826;49.784;9.934;2023-05-10T00:24:27;11.50;1.00
15450;DHT22;7826;49.784;9.934;2023-05-10T00:26:54;11.50;1.00
15450;DHT22;7826;49.784;9.934;2023-05-10T00:29:20;11.40;1.00
15450;DHT22;7826;49.784;9.934;2023-05-10T00:31:46;11.40;1.00
15450;DHT22;7826;49.784;9.934;2023-05-10T00:34:12;11.40;1.00
15450;DHT22;7826;49.784;9.934;2023-05-10T00:36:39;11.40;1.00
15450;DHT22;7826;49.784;9.934;2023-05-10T00:39:05;11.40;1.00
15450;DHT22;7826;49.784;9.934;2023-05-10T00:41:32;11.30;1.00
15450;DHT22;7826;49.784;9.934;2023-05-10T00:43:58;11.20;1.00
15450;DHT22;7826;49.784;9.934;2023-05-10T00:46:25;11.20;1.00
15450;DHT22;7826;49.784;9.934;2023-05-10T00:48:52;11.20;1.00
15450;DHT22;7826;49.784;9.934;2023-05-10T00:51:18;11.10;1.00
15450;DHT22;7826;49.784;9.934;2023-05-10T00:53:48;11.10;1.00
15450;DHT22;7826;49.784;9.934;2023-05-10T00:56:15;11.10;1.00
15450;DHT22;7826;49.784;9.934;2023-05-10T00:58:42;11.00;1.00
15450;DHT22;7826;49.784;9.934;2023-05-10T01:01:09;11.00;1.00
15450;DHT22;7826;49.784;9.934;2023-05-10T01:03:36;11.00;1.00
15450;DHT22;7826;49.784;9.934;2023-05-10T01:06:03;11.00;1.00
15450;DHT22;7826;49.784;9.934;2023-05-10T01:08:29;11.10;1.00
15450;DHT22;7826;49.784;9.934;2023-05-10T01:10:56;10.90;1.00
15450;DHT22;7826;49.784;9.934;2023-05-10T01:13:33;10.90;1.00
15450;DHT22;7826;49.784;9.934;2023-05-10T01:16:00;10.90;1.00
15450;DHT22;7826;49.784;9.934;2023-05-10T01:18:33;10.90;1.00
15450;DHT22;7826;49.784;9.934;2023-05-10T01:26:16;10.80;1.00
15450;DHT22;7826;49.784;9.934;2023-05-10T01:34:35;10.80;1.00
15450;DHT22;7826;49.784;9.934;2023-05-10T01:37:16;10.70;1.00
15450;DHT22;7826;49.784;9.934;2023-05-10T01:42:21;10.70;1.00
15450;DHT22;7826;49.784;9.934;2023-05-10T01:44:58;10.60;1.00
15450;DHT22;7826;49.784;9.934;2023-05-10T01:47:34;10.60;1.00
15450;DHT22;7826;49.784;9.934;2023-05-10T01:50:04;10.60;1.00
15450;DHT22;7826;49.784;9.934;2023-05-10T01:52:34;10.60;1.00
15450;DHT22;7826;49.784;9.934;2023-05-10T01:55:05;10.50;99.90
15450;DHT22;7826;49.784;9.934;2023-05-10T01:57:34;10.50;1.00
15450;DHT22;7826;49.784;9.934;2023-05-10T02:00:03;10.50;1.00
15450;DHT22;7826;49.784;9.934;2023-05-10T02:02:31;10.50;1.00
15450;DHT22;7826;49.784;9.934;2023-05-10T02:04:59;10.50;1.00
15450;DHT22;7826;49.784;9.934;2023-05-10T02:07:27;10.40;1.00
15450;DHT22;7826;49.784;9.934;2023-05-10T02:09:55;10.40;1.00
15450;DHT22;7826;49.784;9.934;2023-05-10T02:12:23;10.40;1.00
15450;DHT22;7826;49.784;9.934;2023-05-10T02:14:51;10.40;1.00
15450;DHT22;7826;49.784;9.934;2023-05-10T02:17:19;10.40;1.00
15450;DHT22;7826;49.784;9.934;2023-05-10T02:19:47;10.30;1.00
15450;DHT22;7826;49.784;9.934;2023-05-10T02:22:14;10.30;1.00
15450;DHT22;7826;49.784;9.934;2023-05-10T02:24:42;10.30;1.00
15450;DHT22;7826;49.784;9.934;2023-05-10T02:27:09;10.30;1.00
15450;DHT22;7826;49.784;9.934;2023-05-10T02:29:36;10.30;1.00
15450;DHT22;7826;49.784;9.934;2023-05-10T02:32:03;10.20;99.90
15450;DHT22;7826;49.784;9.934;2023-05-10T02:34:30;10.20;1.00
15450;DHT22;7826;49.784;9.934;2023-05-10T02:36:58;10.20;1.00
15450;DHT22;7826;49.784;9.934;2023-05-10T02:39:25;10.10;99.90
15450;DHT22;7826;49.784;9.934;2023-05-10T02:41:54;10.10;1.00
15450;DHT22;7826;49.784;9.934;2023-05-10T02:44:22;10.10;1.00
15450;DHT22;7826;49.784;9.934;2023-05-10T02:46:49;10.10;1.00
15450;DHT22;7826;49.784;9.934;2023-05-10T02:49:16;10.00;99.90
15450;DHT22;7826;49.784;9.934;2023-05-10T02:51:49;10.00;99.90
15450;DHT22;7826;49.784;9.934;2023-05-10T02:54:20;10.00;99.90
15450;DHT22;7826;49.784;9.934;2023-05-10T02:56:52;10.00;99.90
15450;DHT22;7826;49.784;9.934;2023-05-10T02:59:19;9.90;99.90
15450;DHT22;7826;49.784;9.934;2023-05-10T03:01:46;9.90;99.90
15450;DHT22;7826;49.784;9.934;2023-05-10T03:04:12;9.90;99.90
15450;DHT22;7826;49.784;9.934;2023-05-10T03:06:40;9.90;99.90
15450;DHT22;7826;49.784;9.934;2023-05-10T03:09:06;9.90;99.90
15450;DHT22;7826;49.784;9.934;2023-05-10T03:14:07;9.90;99.90
15450;DHT22;7826;49.784;9.934;2023-05-10T03:17:03;9.80;99.90
15450;DHT22;7826;49.784;9.934;2023-05-10T03:19:34;9.80;99.90
15450;DHT22;7826;49.784;9.934;2023-05-10T03:22:10;9.80;99.90
15450;DHT22;7826;49.784;9.934;2023-05-10T03:24:39;9.80;99.90
15450;DHT22;7826;49.784;9.934;2023-05-10T03:27:06;9.80;99.90
15450;DHT22;7826;49.784;9.934;2023-05-10T03:29:33;9.80;99.90
15450;DHT22;7826;49.784;9.934;2023-05-10T03:31:59;9.80;99.90
15450;DHT22;7826;49.784;9.934;2023-05-10T03:34:26;9.80;99.90
15450;DHT22;7826;49.784;9.934;2023-05-10T03:36:52;9.80;99.90
15450;DHT22;7826;49.784;9.934;2023-05-10T03:39:18;9.80;99.90
15450;DHT22;7826;49.784;9.934;2023-05-10T03:41:45;9.80;99.90
15450;DHT22;7826;49.784;9.934;2023-05-10T03:44:11;9.70;99.90
15450;DHT22;7826;49.784;9.934;2023-05-10T03:46:37;9.80;99.90
15450;DHT22;7826;49.784;9.934;2023-05-10T03:49:03;9.80;99.90
15450;DHT22;7826;49.784;9.934;2023-05-10T03:51:30;9.80;99.90
15450;DHT22;7826;49.784;9.934;2023-05-10T03:53:57;9.80;99.90
15450;DHT22;7826;49.784;9.934;2023-05-10T03:56:23;9.80;99.90
15450;DHT22;7826;49.784;9.934;2023-05-10T03:58:49;9.80;99.90
15450;DHT22;7826;49.784;9.934;2023-05-10T04:01:15;9.80;99.90
15450;DHT22;7826;49.784;9.934;2023-05-10T04:03:41;9.80;99.90
15450;DHT22;7826;49.784;9.934;2023-05-10T04:06:08;9.80;99.90
15450;DHT22;7826;49.784;9.934;2023-05-10T04:08:37;9.80;99.90
15450;DHT22;7826;49.784;9.934;2023-05-10T04:11:07;9.80;99.90
15450;DHT22;7826;49.784;9.934;2023-05-10T04:13:34;9.80;99.90
15450;DHT22;7826;49.784;9.934;2023-05-10T04:16:01;9.80;99.90
15450;DHT22;7826;49.784;9.934;2023-05-10T04:18:27;9.80;99.90
15450;DHT22;7826;49.784;9.934;2023-05-10T04:20:53;9.80;99.90
15450;DHT22;7826;49.784;9.934;2023-05-10T04:23:20;9.80;99.90
15450;DHT22;7826;49.784;9.934;2023-05-10T04:25:46;9.90;99.90
15450;DHT22;7826;49.784;9.934;2023-05-10T04:28:12;9.90;99.90
15450;DHT22;7826;49.784;9.934;2023-05-10T04:30:39;9.90;99.90
15450;DHT22;7826;49.784;9.934;2023-05-10T04:33:06;9.90;99.90
15450;DHT22;7826;49.784;9.934;2023-05-10T04:35:32;10.00;99.90
15450;DHT22;7826;49.784;9.934;2023-05-10T04:38:00;10.00;99.90
15450;DHT22;7826;49.784;9.934;2023-05-10T04:40:26;10.10;99.90
15450;DHT22;7826;49.784;9.934;2023-05-10T04:42:52;10.10;99.90
15450;DHT22;7826;49.784;9.934;2023-05-10T04:45:18;10.10;99.90
15450;DHT22;7826;49.784;9.934;2023-05-10T04:47:45;10.20;99.90
15450;DHT22;7826;49.784;9.934;2023-05-10T04:50:11;10.20;99.90
15450;DHT22;7826;49.784;9.934;2023-05-10T04:52:37;10.20;99.90
15450;DHT22;7826;49.784;9.934;2023-05-10T04:55:04;10.30;99.90
15450;DHT22;7826;49.784;9.934;2023-05-10T04:57:30;10.30;99.90
15450;DHT22;7826;49.784;9.934;2023-05-10T04:59:56;10.30;99.90
15450;DHT22;7826;49.784;9.934;2023-05-10T05:02:22;10.40;99.90
15450;DHT22;7826;49.784;9.934;2023-05-10T05:04:49;10.50;99.90
15450;DHT22;7826;49.784;9.934;2023-05-10T05:07:15;10.60;99.90
15450;DHT22;7826;49.784;9.934;2023-05-10T05:09:42;10.60;99.90
15450;DHT22;7826;49.784;9.934;2023-05-10T05:12:08;10.70;99.90
15450;DHT22;7826;49.784;9.934;2023-05-10T05:14:40;10.70;99.90
15450;DHT22;7826;49.784;9.934;2023-05-10T05:17:07;10.80;99.90
15450;DHT22;7826;49.784;9.934;2023-05-10T05:19:34;10.80;99.90
15450;DHT22;7826;49.784;9.934;2023-05-10T05:22:00;10.90;99.90
15450;DHT22;7826;49.784;9.934;2023-05-10T05:24:26;11.00;99.90
15450;DHT22;7826;49.784;9.934;2023-05-10T05:26:52;11.10;99.90
15450;DHT22;7826;49.784;9.934;2023-05-10T05:29:18;11.20;99.90
15450;DHT22;7826;49.784;9.934;2023-05-10T05:31:45;11.30;99.90
15450;DHT22;7826;49.784;9.934;2023-05-10T05:34:11;11.40;99.90
15450;DHT22;7826;49.784;9.934;2023-05-10T05:36:37;11.40;99.90
15450;DHT22;7826;49.784;9.934;2023-05-10T05:39:06;11.50;99.90
15450;DHT22;7826;49.784;9.934;2023-05-10T05:41:33;11.60;99.90
15450;DHT22;7826;49.784;9.934;2023-05-10T05:43:59;11.60;99.90
15450;DHT22;7826;49.784;9.934;2023-05-10T05:46:26;11.70;99.90
15450;DHT22;7826;49.784;9.934;2023-05-10T05:48:52;11.70;99.90
15450;DHT22;7826;49.784;9.934;2023-05-10T05:51:18;11.80;99.90
15450;DHT22;7826;49.784;9.934;2023-05-10T05:53:44;11.90;99.90
15450;DHT22;7826;49.784;9.934;2023-05-10T05:56:11;12.00;99.90
15450;DHT22;7826;49.784;9.934;2023-05-10T05:58:37;12.10;99.90
15450;DHT22;7826;49.784;9.934;2023-05-10T06:01:03;12.20;99.90
15450;DHT22;7826;49.784;9.934;2023-05-10T06:03:29;12.20;99.90
15450;DHT22;7826;49.784;9.934;2023-05-10T06:05:56;12.30;99.90
15450;DHT22;7826;49.784;9.934;2023-05-10T06:08:22;12.40;99.90
15450;DHT22;7826;49.784;9.934;2023-05-10T06:10:48;12.50;99.90
15450;DHT22;7826;49.784;9.934;2023-05-10T06:13:15;12.50;99.90
15450;DHT22;7826;49.784;9.934;2023-05-10T06:15:41;12.70;99.90
15450;DHT22;7826;49.784;9.934;2023-05-10T06:18:07;12.70;99.90
15450;DHT22;7826;49.784;9.934;2023-05-10T06:20:34;12.90;99.90
15450;DHT22;7826;49.784;9.934;2023-05-10T06:23:00;13.10;99.90
15450;DHT22;7826;49.784;9.934;2023-05-10T06:25:26;13.20;99.90
15450;DHT22;7826;49.784;9.934;2023-05-10T06:27:52;13.40;99.90
15450;DHT22;7826;49.784;9.934;2023-05-10T06:30:24;13.60;99.90
15450;DHT22;7826;49.784;9.934;2023-05-10T06:32:53;13.70;99.90
15450;DHT22;7826;49.784;9.934;2023-05-10T06:35:19;13.80;99.90
15450;DHT22;7826;49.784;9.934;2023-05-10T06:37:45;13.80;99.90
15450;DHT22;7826;49.784;9.934;2023-05-10T06:40:12;14.10;99.90
15450;DHT22;7826;49.784;9.934;2023-05-10T06:42:39;14.20;99.90
15450;DHT22;7826;49.784;9.934;2023-05-10T06:45:06;14.40;99.90
15450;DHT22;7826;49.784;9.934;2023-05-10T06:47:32;14.50;99.90
15450;DHT22;7826;49.784;9.934;2023-05-10T06:49:58;14.70;99.90
15450;DHT22;7826;49.784;9.934;2023-05-10T06:52:25;14.80;99.90
15450;DHT22;7826;49.784;9.934;2023-05-10T06:54:51;14.90;99.90
15450;DHT22;7826;49.784;9.934;2023-05-10T06:57:17;15.00;99.90
15450;DHT22;7826;49.784;9.934;2023-05-10T06:59:43;15.30;99.90
15450;DHT22;7826;49.784;9.934;2023-05-10T07:02:10;15.40;99.90
15450;DHT22;7826;49.784;9.934;2023-05-10T07:04:36;15.60;99.90
15450;DHT22;7826;49.784;9.934;2023-05-10T07:07:02;15.90;99.90
15450;DHT22;7826;49.784;9.934;2023-05-10T07:09:28;15.90;99.90
15450;DHT22;7826;49.784;9.934;2023-05-10T07:11:55;15.80;99.90
15450;DHT22;7826;49.784;9.934;2023-05-10T07:14:23;16.20;99.90
15450;DHT22;7826;49.784;9.934;2023-05-10T07:16:49;16.40;99.90
15450;DHT22;7826;49.784;9.934;2023-05-10T07:19:15;16.80;99.90
15450;DHT22;7826;49.784;9.934;2023-05-10T07:21:41;16.80;99.90
15450;DHT22;7826;49.784;9.934;2023-05-10T07:24:09;17.00;99.90
15450;DHT22;7826;49.784;9.934;2023-05-10T07:26:35;16.90;1.00
15450;DHT22;7826;49.784;9.934;2023-05-10T07:29:01;17.00;1.00
15450;DHT22;7826;49.784;9.934;2023-05-10T07:31:28;16.90;1.00
15450;DHT22;7826;49.784;9.934;2023-05-10T07:33:54;16.90;99.90
15450;DHT22;7826;49.784;9.934;2023-05-10T07:36:20;17.10;99.90
15450;DHT22;7826;49.784;9.934;2023-05-10T07:38:47;17.60;99.90
15450;DHT22;7826;49.784;9.934;2023-05-10T07:41:13;17.70;1.00
15450;DHT22;7826;49.784;9.934;2023-05-10T07:43:39;17.80;1.00
15450;DHT22;7826;49.784;9.934;2023-05-10T07:46:06;17.80;1.00
15450;DHT22;7826;49.784;9.934;2023-05-10T07:48:32;18.20;1.00
15450;DHT22;7826;49.784;9.934;2023-05-10T07:50:58;18.70;1.00
15450;DHT22;7826;49.784;9.934;2023-05-10T07:53:26;19.20;1.00
15450;DHT22;7826;49.784;9.934;2023-05-10T07:55:57;18.70;1.00
15450;DHT22;7826;49.784;9.934;2023-05-10T07:58:24;18.70;1.00
15450;DHT22;7826;49.784;9.934;2023-05-10T08:00:51;19.00;1.00
15450;DHT22;7826;49.784;9.934;2023-05-10T08:03:17;19.20;1.00
15450;DHT22;7826;49.784;9.934;2023-05-10T08:05:43;19.10;1.00
15450;DHT22;7826;49.784;9.934;2023-05-10T08:08:09;19.20;1.00
15450;DHT22;7826;49.784;9.934;2023-05-10T08:10:36;19.10;1.00
15450;DHT22;7826;49.784;9.934;2023-05-10T08:13:02;19.20;1.00
15450;DHT22;7826;49.784;9.934;2023-05-10T08:15:28;19.70;1.00
15450;DHT22;7826;49.784;9.934;2023-05-10T08:17:54;19.90;1.00
15450;DHT22;7826;49.784;9.934;2023-05-10T08:20:21;19.80;1.00
15450;DHT22;7826;49.784;9.934;2023-05-10T08:22:47;19.90;1.00
15450;DHT22;7826;49.784;9.934;2023-05-10T08:25:13;20.10;1.00
15450;DHT22;7826;49.784;9.934;2023-05-10T08:27:39;20.20;1.00
15450;DHT22;7826;49.784;9.934;2023-05-10T08:30:06;20.10;1.00
15450;DHT22;7826;49.784;9.934;2023-05-10T08:32:32;19.90;1.00
15450;DHT22;7826;49.784;9.934;2023-05-10T08:35:00;20.00;1.00
15450;DHT22;7826;49.784;9.934;2023-05-10T08:37:29;20.30;1.00
15450;DHT22;7826;49.784;9.934;2023-05-10T08:39:56;20.20;1.00
15450;DHT22;7826;49.784;9.934;2023-05-10T08:42:22;20.10;1.00
15450;DHT22;7826;49.784;9.934;2023-05-10T08:44:52;19.90;1.00
15450;DHT22;7826;49.784;9.934;2023-05-10T08:47:20;20.00;1.00
15450;DHT22;7826;49.784;9.934;2023-05-10T08:49:47;19.90;1.00
15450;DHT22;7826;49.784;9.934;2023-05-10T08:52:17;20.10;1.00
15450;DHT22;7826;49.784;9.934;2023-05-10T08:54:44;20.10;1.00
15450;DHT22;7826;49.784;9.934;2023-05-10T08:57:10;20.10;1.00
15450;DHT22;7826;49.784;9.934;2023-05-10T08:59:36;20.30;1.00
15450;DHT22;7826;49.784;9.934;2023-05-10T09:02:05;20.30;1.00
15450;DHT22;7826;49.784;9.934;2023-05-10T09:04:32;20.10;1.00
15450;DHT22;7826;49.784;9.934;2023-05-10T09:06:58;20.10;1.00
15450;DHT22;7826;49.784;9.934;2023-05-10T09:09:25;20.70;1.00
15450;DHT22;7826;49.784;9.934;2023-05-10T09:11:52;21.00;1.00
15450;DHT22;7826;49.784;9.934;2023-05-10T09:14:20;21.30;1.00
15450;DHT22;7826;49.784;9.934;2023-05-10T09:16:46;21.60;1.00
15450;DHT22;7826;49.784;9.934;2023-05-10T09:19:13;21.40;1.00
15450;DHT22;7826;49.784;9.934;2023-05-10T09:21:39;21.10;1.00
15450;DHT22;7826;49.784;9.934;2023-05-10T09:24:07;21.20;1.00
15450;DHT22;7826;49.784;9.934;2023-05-10T09:26:34;21.20;1.00
15450;DHT22;7826;49.784;9.934;2023-05-10T09:29:03;21.30;1.00
15450;DHT22;7826;49.784;9.934;2023-05-10T09:31:50;21.30;1.00
15450;DHT22;7826;49.784;9.934;2023-05-10T09:34:18;20.90;1.00
15450;DHT22;7826;49.784;9.934;2023-05-10T09:36:53;20.80;1.00
15450;DHT22;7826;49.784;9.934;2023-05-10T09:39:19;20.90;1.00
15450;DHT22;7826;49.784;9.934;2023-05-10T09:41:49;21.10;1.00
15450;DHT22;7826;49.784;9.934;2023-05-10T09:44:21;21.20;1.00
15450;DHT22;7826;49.784;9.934;2023-05-10T09:46:52;20.90;1.00
15450;DHT22;7826;49.784;9.934;2023-05-10T09:49:41;21.00;1.00
15450;DHT22;7826;49.784;9.934;2023-05-10T09:52:13;20.80;1.00
15450;DHT22;7826;49.784;9.934;2023-05-10T09:54:51;21.50;1.00
15450;DHT22;7826;49.784;9.934;2023-05-10T09:57:22;21.20;1.00
15450;DHT22;7826;49.784;9.934;2023-05-10T09:59:56;21.50;1.00
15450;DHT22;7826;49.784;9.934;2023-05-10T10:02:31;21.40;1.00
15450;DHT22;7826;49.784;9.934;2023-05-10T10:05:02;21.00;1.00
15450;DHT22;7826;49.784;9.934;2023-05-10T10:07:42;21.20;1.00
15450;DHT22;7826;49.784;9.934;2023-05-10T10:10:19;21.30;1.00
15450;DHT22;7826;49.784;9.934;2023-05-10T10:12:45;21.70;1.00
15450;DHT22;7826;49.784;9.934;2023-05-10T10:15:12;22.00;1.00
15450;DHT22;7826;49.784;9.934;2023-05-10T10:17:38;21.80;1.00
15450;DHT22;7826;49.784;9.934;2023-05-10T10:20:16;21.70;1.00
15450;DHT22;7826;49.784;9.934;2023-05-10T10:22:50;22.30;1.00
15450;DHT22;7826;49.784;9.934;2023-05-10T10:25:19;22.60;1.00
15450;DHT22;7826;49.784;9.934;2023-05-10T10:30:50;22.80;1.00
15450;DHT22;7826;49.784;9.934;2023-05-10T10:36:06;22.50;1.00
15450;DHT22;7826;49.784;9.934;2023-05-10T10:38:57;22.60;1.00
15450;DHT22;7826;49.784;9.934;2023-05-10T10:41:34;23.00;1.00
15450;DHT22;7826;49.784;9.934;2023-05-10T10:44:34;23.00;1.00
15450;DHT22;7826;49.784;9.934;2023-05-10T10:47:21;23.40;1.00
15450;DHT22;7826;49.784;9.934;2023-05-10T10:50:05;23.30;1.00
15450;DHT22;7826;49.784;9.934;2023-05-10T10:52:36;23.50;1.00
15450;DHT22;7826;49.784;9.934;2023-05-10T10:57:49;23.50;1.00
15450;DHT22;7826;49.784;9.934;2023-05-10T11:00:19;23.60;1.00
15450;DHT22;7826;49.784;9.934;2023-05-10T11:08:09;23.70;1.00
15450;DHT22;7826;49.784;9.934;2023-05-10T11:10:36;23.90;1.00
15450;DHT22;7826;49.784;9.934;2023-05-10T11:13:07;24.20;1.00
15450;DHT22;7826;49.784;9.934;2023-05-10T11:15:38;24.20;1.00
15450;DHT22;7826;49.784;9.934;2023-05-10T11:18:18;24.50;1.00
15450;DHT22;7826;49.784;9.934;2023-05-10T11:20:50;23.70;1.00
15450;DHT22;7826;49.784;9.934;2023-05-10T11:23:17;24.10;1.00
15450;DHT22;7826;49.784;9.934;2023-05-10T11:25:48;24.60;1.00
15450;DHT22;7826;49.784;9.934;2023-05-10T11:28:14;24.10;1.00
15450;DHT22;7826;49.784;9.934;2023-05-10T11:30:43;24.60;1.00
15450;DHT22;7826;49.784;9.934;2023-05-10T11:33:14;24.70;1.00
15450;DHT22;7826;49.784;9.934;2023-05-10T11:35:49;24.20;1.00
15450;DHT22;7826;49.784;9.934;2023-05-10T11:38:41;24.40;1.00
15450;DHT22;7826;49.784;9.934;2023-05-10T11:45:09;25.10;1.00
15450;DHT22;7826;49.784;9.934;2023-05-10T11:48:44;25.10;1.00
15450;DHT22;7826;49.784;9.934;2023-05-10T11:58:55;24.60;1.00
15450;DHT22;7826;49.784;9.934;2023-05-10T12:05:23;25.00;1.00
15450;DHT22;7826;49.784;9.934;2023-05-10T12:12:05;25.00;1.00
15450;DHT22;7826;49.784;9.934;2023-05-10T12:14:40;25.00;1.00
15450;DHT22;7826;49.784;9.934;2023-05-10T12:17:15;24.80;1.00
15450;DHT22;7826;49.784;9.934;2023-05-10T12:19:42;25.00;1.00
15450;DHT22;7826;49.784;9.934;2023-05-10T12:22:24;25.40;1.00
15450;DHT22;7826;49.784;9.934;2023-05-10T12:25:17;25.50;1.00
15450;DHT22;7826;49.784;9.934;2023-05-10T12:27:56;25.40;1.00
15450;DHT22;7826;49.784;9.934;2023-05-10T12:32:49;25.40;1.00
15450;DHT22;7826;49.784;9.934;2023-05-10T12:35:23;25.40;1.00
15450;DHT22;7826;49.784;9.934;2023-05-10T12:38:33;25.10;1.00
15450;DHT22;7826;49.784;9.934;2023-05-10T12:41:02;24.70;1.00
15450;DHT22;7826;49.784;9.934;2023-05-10T12:43:29;24.90;1.00
15450;DHT22;7826;49.784;9.934;2023-05-10T12:45:55;24.80;1.00
15450;DHT22;7826;49.784;9.934;2023-05-10T12:48:22;24.40;1.00
15450;DHT22;7826;49.784;9.934;2023-05-10T12:50:48;24.60;1.00
15450;DHT22;7826;49.784;9.934;2023-05-10T12:53:15;24.50;1.00
15450;DHT22;7826;49.784;9.934;2023-05-10T12:55:42;24.40;1.00
15450;DHT22;7826;49.784;9.934;2023-05-10T12:58:08;24.50;1.00
15450;DHT22;7826;49.784;9.934;2023-05-10T13:00:34;24.80;1.00
15450;DHT22;7826;49.784;9.934;2023-05-10T13:03:01;24.80;1.00
15450;DHT22;7826;49.784;9.934;2023-05-10T13:05:27;24.90;1.00
15450;DHT22;7826;49.784;9.934;2023-05-10T13:07:53;24.60;1.00
15450;DHT22;7826;49.784;9.934;2023-05-10T13:10:19;24.60;1.00
15450;DHT22;7826;49.784;9.934;2023-05-10T13:12:46;24.70;1.00
15450;DHT22;7826;49.784;9.934;2023-05-10T13:15:12;24.50;1.00
15450;DHT22;7826;49.784;9.934;2023-05-10T13:17:38;24.70;1.00
15450;DHT22;7826;49.784;9.934;2023-05-10T13:20:06;24.60;1.00
15450;DHT22;7826;49.784;9.934;2023-05-10T13:22:33;24.60;1.00
15450;DHT22;7826;49.784;9.934;2023-05-10T13:24:59;24.10;1.00
15450;DHT22;7826;49.784;9.934;2023-05-10T13:27:25;23.80;1.00
15450;DHT22;7826;49.784;9.934;2023-05-10T13:29:52;23.70;1.00
15450;DHT22;7826;49.784;9.934;2023-05-10T13:32:19;23.80;1.00
15450;DHT22;7826;49.784;9.934;2023-05-10T13:34:45;23.60;1.00
15450;DHT22;7826;49.784;9.934;2023-05-10T13:37:12;23.80;1.00
15450;DHT22;7826;49.784;9.934;2023-05-10T13:39:38;24.00;1.00
15450;DHT22;7826;49.784;9.934;2023-05-10T13:42:05;24.00;1.00
15450;DHT22;7826;49.784;9.934;2023-05-10T13:44:31;23.80;1.00
15450;DHT22;7826;49.784;9.934;2023-05-10T13:46:59;23.70;1.00
15450;DHT22;7826;49.784;9.934;2023-05-10T13:49:26;23.60;1.00
15450;DHT22;7826;49.784;9.934;2023-05-10T13:51:52;23.60;1.00
15450;DHT22;7826;49.784;9.934;2023-05-10T13:54:18;23.50;1.00
15450;DHT22;7826;49.784;9.934;2023-05-10T13:56:45;23.50;1.00
15450;DHT22;7826;49.784;9.934;2023-05-10T13:59:13;23.50;1.00
15450;DHT22;7826;49.784;9.934;2023-05-10T14:01:40;23.50;1.00
15450;DHT22;7826;49.784;9.934;2023-05-10T14:04:07;23.50;1.00
15450;DHT22;7826;49.784;9.934;2023-05-10T14:06:36;23.60;1.00
15450;DHT22;7826;49.784;9.934;2023-05-10T14:09:03;23.60;1.00
15450;DHT22;7826;49.784;9.934;2023-05-10T14:11:29;23.50;1.00
15450;DHT22;7826;49.784;9.934;2023-05-10T14:13:55;23.60;1.00
15450;DHT22;7826;49.784;9.934;2023-05-10T14:16:21;23.70;1.00
15450;DHT22;7826;49.784;9.934;2023-05-10T14:18:48;23.50;1.00
15450;DHT22;7826;49.784;9.934;2023-05-10T14:21:14;23.30;1.00
15450;DHT22;7826;49.784;9.934;2023-05-10T14:23:41;23.40;1.00
15450;DHT22;7826;49.784;9.934;2023-05-10T14:26:07;23.30;1.00
15450;DHT22;7826;49.784;9.934;2023-05-10T14:28:33;23.20;1.00
15450;DHT22;7826;49.784;9.934;2023-05-10T14:31:00;23.30;1.00
15450;DHT22;7826;49.784;9.934;2023-05-10T14:33:26;23.20;1.00
15450;DHT22;7826;49.784;9.934;2023-05-10T14:35:54;23.10;1.00
15450;DHT22;7826;49.784;9.934;2023-05-10T14:38:23;23.10;1.00
15450;DHT22;7826;49.784;9.934;2023-05-10T14:40:49;22.90;1.00
15450;DHT22;7826;49.784;9.934;2023-05-10T14:43:15;22.50;1.00
15450;DHT22;7826;49.784;9.934;2023-05-10T14:45:41;22.10;1.00
15450;DHT22;7826;49.784;9.934;2023-05-10T14:48:08;22.00;1.00
15450;DHT22;7826;49.784;9.934;2023-05-10T14:50:38;22.00;1.00
15450;DHT22;7826;49.784;9.934;2023-05-10T14:53:05;21.70;1.00
15450;DHT22;7826;49.784;9.934;2023-05-10T14:55:31;21.60;1.00
15450;DHT22;7826;49.784;9.934;2023-05-10T14:57:58;21.70;1.00
15450;DHT22;7826;49.784;9.934;2023-05-10T15:00:24;21.70;1.00
15450;DHT22;7826;49.784;9.934;2023-05-10T15:02:51;21.70;1.00
15450;DHT22;7826;49.784;9.934;2023-05-10T15:05:17;21.70;1.00
15450;DHT22;7826;49.784;9.934;2023-05-10T15:07:43;21.80;1.00
15450;DHT22;7826;49.784;9.934;2023-05-10T15:10:12;21.40;1.00
15450;DHT22;7826;49.784;9.934;2023-05-10T15:12:43;21.50;1.00
15450;DHT22;7826;49.784;9.934;2023-05-10T15:15:14;21.40;1.00
15450;DHT22;7826;49.784;9.934;2023-05-10T15:17:41;21.30;1.00
15450;DHT22;7826;49.784;9.934;2023-05-10T15:20:07;21.40;1.00
15450;DHT22;7826;49.784;9.934;2023-05-10T15:22:43;21.30;1.00
15450;DHT22;7826;49.784;9.934;2023-05-10T15:25:09;21.20;1.00
15450;DHT22;7826;49.784;9.934;2023-05-10T15:27:35;21.10;1.00
15450;DHT22;7826;49.784;9.934;2023-05-10T15:30:05;21.00;1.00
15450;DHT22;7826;49.784;9.934;2023-05-10T15:32:32;21.00;1.00
15450;DHT22;7826;49.784;9.934;2023-05-10T15:34:58;21.00;1.00
15450;DHT22;7826;49.784;9.934;2023-05-10T15:37:25;20.90;1.00
15450;DHT22;7826;49.784;9.934;2023-05-10T15:39:54;20.80;1.00
15450;DHT22;7826;49.784;9.934;2023-05-10T15:46:21;20.80;1.00
15450;DHT22;7826;49.784;9.934;2023-05-10T16:19:42;20.40;1.00
15450;DHT22;7826;49.784;9.934;2023-05-10T16:22:08;20.30;1.00
15450;DHT22;7826;49.784;9.934;2023-05-10T16:24:35;20.20;1.00
15450;DHT22;7826;49.784;9.934;2023-05-10T16:27:09;20.30;1.00
15450;DHT22;7826;49.784;9.934;2023-05-10T16:29:35;20.30;1.00
15450;DHT22;7826;49.784;9.934;2023-05-10T16:32:02;20.30;1.00
15450;DHT22;7826;49.784;9.934;2023-05-10T16:34:31;20.10;1.00
15450;DHT22;7826;49.784;9.934;2023-05-10T16:37:05;20.10;1.00
15450;DHT22;7826;49.784;9.934;2023-05-10T16:39:34;20.10;1.00
15450;DHT22;7826;49.784;9.934;2023-05-10T16:42:03;20.10;1.00
15450;DHT22;7826;49.784;9.934;2023-05-10T16:44:35;20.10;1.00
15450;DHT22;7826;49.784;9.934;2023-05-10T16:47:02;20.10;1.00
15450;DHT22;7826;49.784;9.934;2023-05-10T16:49:33;20.10;1.00
15450;DHT22;7826;49.784;9.934;2023-05-10T16:52:15;20.10;1.00
15450;DHT22;7826;49.784;9.934;2023-05-10T16:54:41;20.00;1.00
15450;DHT22;7826;49.784;9.934;2023-05-10T16:57:08;20.00;1.00
15450;DHT22;7826;49.784;9.934;2023-05-10T16:59:34;20.00;1.00
15450;DHT22;7826;49.784;9.934;2023-05-10T17:02:00;20.00;1.00
15450;DHT22;7826;49.784;9.934;2023-05-10T17:04:26;19.90;1.00
15450;DHT22;7826;49.784;9.934;2023-05-10T17:06:53;19.80;1.00
15450;DHT22;7826;49.784;9.934;2023-05-10T17:09:19;19.80;1.00
15450;DHT22;7826;49.784;9.934;2023-05-10T17:11:46;19.80;1.00
15450;DHT22;7826;49.784;9.934;2023-05-10T17:14:12;19.80;1.00
15450;DHT22;7826;49.784;9.934;2023-05-10T17:16:38;19.70;1.00
15450;DHT22;7826;49.784;9.934;2023-05-10T17:19:04;19.60;1.00
15450;DHT22;7826;49.784;9.934;2023-05-10T17:21:32;19.80;1.00
15450;DHT22;7826;49.784;9.934;2023-05-10T17:23:58;19.70;1.00
15450;DHT22;7826;49.784;9.934;2023-05-10T17:26:25;19.70;1.00
15450;DHT22;7826;49.784;9.934;2023-05-10T17:28:52;19.60;1.00
15450;DHT22;7826;49.784;9.934;2023-05-10T17:31:19;19.50;1.00